Občina Cerknica, Slovenia

06:42 PM CEST on maj 28, 2017 (GMT +0200)
sajevce,slovenia | | Change Station

Viš 1913 ft 45.74 °N, 14.11 °E | Updated 1 minute ago

Jasno
Jasno
73.9 °F
Feels Like 77 °F
N
6.0
Veter Spremenljivo Veter od SV
Gusts 6.0 mph

Danes
High -- | Low -- °F
--% Chance of Precip.
Yesterday
High -- | Low -- °F
Precip. -- v
Zračni tlak 30.15 v
Vidljivost 6.2 milje
Oblaki Razprseni oblaki 6000 ft
Toplotni indeks 77 °F
Rosišče 52 °F
Vlažnost 47%
Padavine 0.00 v
Snow Depth Not available.
5:19 AM 8:42 PM
Naraščajoči krajec, 12% visible
METAR LJLJ 281630Z 12007KT 090V160 9999 SCT060 25/11 Q1021 NOSIG
Zračni tlak 30.15 v
Vidljivost 6.2 milje
Oblaki Razprseni oblaki 6000 ft
Toplotni indeks 77 °F
Rosišče 52 °F
Vlažnost 47%
Padavine 0.00 v
Snow Depth Not available.
5:19 AM 8:42 PM
Naraščajoči krajec, 12% visible
METAR LJLJ 281630Z 12007KT 090V160 9999 SCT060 25/11 Q1021 NOSIG

Get Severe Weather Alerts

Thanks for signing up!

Be on the lookout for a verification email in your inbox.

You'll start receiving the daily forecast at 6 AM.

×

10-Day Weather Forecast

×

Almanac

Astronomija

May. 28, 2017 Rise Set
Actual Time
Civil Twilight
Nautical Twilight
Astronomical Twilight
Moon
Length Of Visible Light
Dolžina dneva
Tomorrow will be .
, % of the Moon is Illuminated

Današnji ekstremi

Country Highs Country Lows

Community

WunderPhotos

Category 6

Welcome to Category 6. This is the collective home for Weather Underground's featured writeups by Dr. Jeff Masters (right), Bob Henson (left), Chris Burt, and other regular contributors.

Nearby

Air Quality

  Air Quality AQ Index Pollutant
Not available.

Snow Depth

Station Depth Višina

Earthquake Activity

City Distance Mag. Time & Date
Minimum magnitude displayed is 2.5.

Coastal Water Temperatures

Mesto Temperatura

Stations

Nearby Weather Stations

Station Location Temp Občutek zaradi vetra Rosišče Vlažnost Veter Precip. Viš Obnovljeno Type